Time;durP1;ratioP1;P1;durP2;ratioP2;P2;SDS_P1;SDS_P2;PMS_P1;PMS_P2;Temp;Humidity;BMP_temperature;BMP_pressure;BME280_temperature;BME280_humidity;BME280_pressure;Samples;Min_cycle;Max_cycle;Signal;HPM_P1;HPM_P2
2022/04/03 00:00:39;;;;;;;0.17;0.17;;;0.20;67.70;;;;;;5116302;28;20035;-69
2022/04/03 00:03:05;;;;;;;0.10;0.10;;;0.20;67.70;;;;;;5115702;28;20044;-70
2022/04/03 00:05:35;;;;;;;0.20;0.08;;;0.10;67.70;;;;;;5115800;28;20114;-70
2022/04/03 00:08:01;;;;;;;0.00;0.00;;;0.10;67.80;;;;;;5080749;28;20386;-70
2022/04/03 00:10:27;;;;;;;0.10;0.10;;;0.10;67.80;;;;;;5097166;28;20035;-68
2022/04/03 00:12:53;;;;;;;0.10;0.00;;;0.00;67.80;;;;;;5097922;28;20036;-70
2022/04/03 00:15:18;;;;;;;0.10;0.10;;;0.00;67.80;;;;;;5116023;28;20031;-69
2022/04/03 00:17:45;;;;;;;0.20;0.10;;;0.10;68.00;;;;;;5096968;28;20040;-70
2022/04/03 00:20:12;;;;;;;0.10;0.03;;;-0.10;67.90;;;;;;5115575;28;20595;-69
2022/04/03 00:22:37;;;;;;;0.10;0.10;;;-0.10;68.00;;;;;;5115320;28;20483;-70
2022/04/03 00:25:04;;;;;;;0.15;0.13;;;-0.10;68.10;;;;;;5115545;28;20047;-70
2022/04/03 00:27:30;;;;;;;1.10;0.10;;;-0.10;68.10;;;;;;5096495;28;20050;-70
2022/04/03 00:29:56;;;;;;;0.00;0.00;;;-0.10;68.10;;;;;;5115053;28;20126;-70
2022/04/03 00:32:22;;;;;;;0.10;0.10;;;-0.20;68.10;;;;;;5097224;28;20400;-70
2022/04/03 00:34:48;;;;;;;0.10;0.10;;;-0.20;68.20;;;;;;5115307;28;20100;-70
2022/04/03 00:37:13;;;;;;;0.30;0.20;;;-0.20;68.30;;;;;;5115060;28;20043;-70
2022/04/03 00:39:39;;;;;;;0.00;0.00;;;-0.20;68.30;;;;;;5115143;28;20043;-69
2022/04/03 00:42:08;;;;;;;0.20;0.10;;;-0.20;68.40;;;;;;5114844;28;20039;-70
2022/04/03 00:44:35;;;;;;;0.00;0.00;;;-0.20;68.30;;;;;;5115257;28;20047;-70
2022/04/03 00:47:03;;;;;;;0.00;0.00;;;-0.20;68.30;;;;;;5114771;28;20047;-70
2022/04/03 00:49:29;;;;;;;0.10;0.10;;;-0.20;68.40;;;;;;5096803;28;20043;-69
2022/04/03 00:51:55;;;;;;;0.30;0.20;;;-0.20;68.40;;;;;;5114711;28;20150;-70
2022/04/03 00:54:20;;;;;;;0.10;0.10;;;-0.10;68.40;;;;;;5114684;28;20114;-70
2022/04/03 00:56:46;;;;;;;0.32;0.10;;;-0.20;68.40;;;;;;5114582;28;20036;-70
2022/04/03 00:59:13;;;;;;;0.00;0.00;;;-0.20;68.40;;;;;;5114613;28;20040;-70
2022/04/03 01:01:40;;;;;;;0.10;0.10;;;-0.30;68.30;;;;;;5096500;28;20066;-70
2022/04/03 01:04:07;;;;;;;0.17;0.10;;;-0.20;68.40;;;;;;5114618;28;20035;-70
2022/04/03 01:06:33;;;;;;;0.00;0.00;;;-0.20;68.40;;;;;;5095698;28;20174;-70
2022/04/03 01:08:59;;;;;;;0.32;0.20;;;-0.20;68.50;;;;;;5114401;28;20118;-70
2022/04/03 01:11:25;;;;;;;0.08;0.08;;;-0.30;68.50;;;;;;5079274;28;20039;-70
2022/04/03 01:13:51;;;;;;;0.00;0.00;;;-0.40;68.50;;;;;;5114696;28;20043;-70
2022/04/03 01:16:18;;;;;;;0.10;0.10;;;-0.40;68.50;;;;;;5114504;28;20482;-70
2022/04/03 01:18:43;;;;;;;0.25;0.10;;;-0.40;68.50;;;;;;5114244;28;20126;-70
2022/04/03 01:21:10;;;;;;;0.00;0.00;;;-0.30;68.60;;;;;;5114707;28;20433;-70
2022/04/03 01:23:36;;;;;;;0.10;0.10;;;-0.40;68.70;;;;;;5114453;28;20052;-70
2022/04/03 01:26:02;;;;;;;0.20;0.10;;;-0.40;68.70;;;;;;5114026;28;20504;-70
2022/04/03 01:28:27;;;;;;;0.10;0.10;;;-0.40;68.80;;;;;;5114508;28;20096;-70
2022/04/03 01:30:53;;;;;;;0.25;0.20;;;-0.50;68.80;;;;;;5114394;28;20040;-70
2022/04/03 01:33:19;;;;;;;0.00;0.00;;;-0.50;69.50;;;;;;5114665;28;20461;-70
2022/04/03 01:35:45;;;;;;;0.10;0.10;;;-0.50;68.90;;;;;;5114687;28;20350;-70
2022/04/03 01:38:12;;;;;;;0.30;0.08;;;-0.50;68.90;;;;;;5114553;28;20088;-70
2022/04/03 01:40:38;;;;;;;0.10;0.10;;;-0.60;69.00;;;;;;5114062;28;20127;-70
2022/04/03 01:43:06;;;;;;;0.85;0.28;;;-0.60;69.10;;;;;;5113920;28;20119;-70
2022/04/03 01:45:33;;;;;;;0.10;0.10;;;-0.60;69.10;;;;;;5114286;28;20465;-70
2022/04/03 01:47:59;;;;;;;0.25;0.17;;;-0.50;69.20;;;;;;5113930;28;20039;-70
2022/04/03 01:50:26;;;;;;;0.15;0.10;;;-0.60;69.10;;;;;;5114062;28;20438;-70
2022/04/03 01:52:52;;;;;;;0.17;0.10;;;-0.60;69.10;;;;;;5095367;28;20046;-70
2022/04/03 01:55:18;;;;;;;0.00;0.00;;;-0.60;69.00;;;;;;5113922;28;20044;-70
2022/04/03 01:57:44;;;;;;;0.17;0.15;;;-0.60;69.00;;;;;;5095745;28;20031;-70
2022/04/03 02:00:10;;;;;;;0.60;0.20;;;-0.60;69.00;;;;;;5114193;28;20035;-70
2022/04/03 02:02:37;;;;;;;0.43;0.20;;;-0.60;69.10;;;;;;5095940;28;20403;-70
2022/04/03 02:05:04;;;;;;;0.40;0.20;;;-0.50;69.20;;;;;;5114208;28;20169;-70
2022/04/03 02:07:31;;;;;;;0.10;0.10;;;-0.60;69.20;;;;;;5113079;28;20050;-69
2022/04/03 02:09:56;;;;;;;0.10;0.10;;;-0.60;69.20;;;;;;5113421;28;20425;-70
2022/04/03 02:12:22;;;;;;;0.55;0.30;;;-0.60;69.20;;;;;;5095110;28;20139;-70
2022/04/03 02:14:48;;;;;;;0.40;0.20;;;-0.60;69.30;;;;;;5113966;28;20050;-70
2022/04/03 02:17:14;;;;;;;0.10;0.10;;;-0.60;69.20;;;;;;5113317;28;20042;-70
2022/04/03 02:19:39;;;;;;;0.10;0.10;;;-0.70;69.20;;;;;;5113439;28;20370;-70
2022/04/03 02:22:05;;;;;;;0.05;0.00;;;-0.60;69.40;;;;;;5113831;28;20047;-70
2022/04/03 02:24:31;;;;;;;0.20;0.10;;;-0.70;69.40;;;;;;5095171;28;20047;-70
2022/04/03 02:26:56;;;;;;;0.10;0.10;;;-0.70;69.50;;;;;;5113311;28;20053;-70
2022/04/03 02:29:22;;;;;;;0.15;0.13;;;-0.70;69.50;;;;;;5113209;28;20079;-70
2022/04/03 02:31:48;;;;;;;0.10;0.10;;;-0.80;69.50;;;;;;5113190;28;20039;-70
2022/04/03 02:34:14;;;;;;;0.20;0.10;;;-0.80;69.60;;;;;;5112832;28;20503;-70
2022/04/03 02:36:42;;;;;;;0.08;0.08;;;-0.80;69.70;;;;;;5113051;28;20045;-70
2022/04/03 02:39:09;;;;;;;0.20;0.20;;;-0.80;69.80;;;;;;5113083;28;20065;-70
2022/04/03 02:41:36;;;;;;;0.20;0.20;;;-0.80;69.90;;;;;;5113083;28;20035;-70
2022/04/03 02:44:03;;;;;;;0.20;0.10;;;-0.90;69.90;;;;;;5113323;28;20035;-70
2022/04/03 02:46:30;;;;;;;0.10;0.10;;;-0.90;69.90;;;;;;5112868;28;20098;-70
2022/04/03 02:48:56;;;;;;;0.22;0.10;;;-0.90;70.00;;;;;;5112813;28;20031;-70
2022/04/03 02:51:22;;;;;;;0.15;0.10;;;-0.90;70.10;;;;;;5112819;28;20049;-70
2022/04/03 02:53:47;;;;;;;0.10;0.10;;;-1.00;70.10;;;;;;5113018;28;20032;-70
2022/04/03 02:56:13;;;;;;;0.10;0.10;;;-0.90;70.20;;;;;;5112974;28;20105;-70
2022/04/03 02:58:40;;;;;;;0.10;0.10;;;-1.00;70.10;;;;;;5112678;28;20552;-70
2022/04/03 03:01:06;;;;;;;0.15;0.10;;;-0.80;70.30;;;;;;5112872;28;20046;-70
2022/04/03 03:03:32;;;;;;;0.20;0.10;;;-1.00;70.20;;;;;;5112806;28;20039;-70
2022/04/03 03:05:58;;;;;;;0.10;0.10;;;-1.00;70.20;;;;;;5112643;28;20039;-71
2022/04/03 03:08:24;;;;;;;0.10;0.10;;;-0.90;70.20;;;;;;5113133;28;20089;-71
2022/04/03 03:10:49;;;;;;;0.15;0.10;;;-0.90;70.20;;;;;;5094368;28;20059;-69
2022/04/03 03:13:15;;;;;;;0.43;0.10;;;-0.80;70.20;;;;;;5112596;28;20052;-69
2022/04/03 03:15:41;;;;;;;0.08;0.08;;;-0.90;70.20;;;;;;5112594;28;20039;-69
2022/04/03 03:18:07;;;;;;;0.10;0.10;;;-1.00;70.10;;;;;;5108716;28;20115;-69
2022/04/03 03:20:33;;;;;;;0.10;0.10;;;-0.90;70.20;;;;;;5076235;28;20134;-69
2022/04/03 03:23:00;;;;;;;0.10;0.10;;;-1.00;70.20;;;;;;5093225;28;20580;-69
2022/04/03 03:25:26;;;;;;;0.22;0.20;;;-0.90;70.30;;;;;;5112481;28;20119;-69
2022/04/03 03:27:52;;;;;;;0.15;0.13;;;-0.90;70.30;;;;;;5094730;28;20474;-69
2022/04/03 03:30:18;;;;;;;0.20;0.20;;;-0.90;70.30;;;;;;5112388;28;20043;-69
2022/04/03 03:32:44;;;;;;;0.10;0.10;;;-0.90;70.40;;;;;;5112454;28;20062;-69
2022/04/03 03:35:10;;;;;;;0.10;0.00;;;-0.90;70.30;;;;;;5112601;28;20484;-69
2022/04/03 03:37:37;;;;;;;0.25;0.10;;;-0.80;70.40;;;;;;5112228;28;20039;-69
2022/04/03 03:40:06;;;;;;;0.20;0.10;;;-0.80;70.30;;;;;;5093041;28;20051;-69
2022/04/03 03:42:33;;;;;;;1.23;0.20;;;-0.70;70.40;;;;;;5094420;28;20039;-69
2022/04/03 03:44:59;;;;;;;0.15;0.13;;;-0.80;70.20;;;;;;5112304;28;20032;-69
2022/04/03 03:47:26;;;;;;;0.20;0.20;;;-0.70;70.30;;;;;;5112927;28;20473;-69
2022/04/03 03:49:52;;;;;;;0.35;0.20;;;-0.70;70.30;;;;;;5112183;28;20043;-68
2022/04/03 03:52:18;;;;;;;0.10;0.10;;;-0.70;70.30;;;;;;5112328;28;20044;-69
2022/04/03 03:54:45;;;;;;;0.00;0.00;;;-0.70;70.30;;;;;;5093920;28;20516;-68
2022/04/03 03:57:12;;;;;;;0.10;0.10;;;-0.70;70.30;;;;;;5094663;28;20081;-68
2022/04/03 03:59:37;;;;;;;0.00;0.00;;;-0.60;70.30;;;;;;5111890;28;20043;-68
2022/04/03 04:02:03;;;;;;;0.70;0.10;;;-0.60;70.30;;;;;;5093726;28;20183;-68
2022/04/03 04:04:29;;;;;;;0.10;0.10;;;-0.60;70.30;;;;;;5093857;28;20493;-68
2022/04/03 04:06:56;;;;;;;0.10;0.10;;;-0.60;70.30;;;;;;5112310;28;20123;-68
2022/04/03 04:09:22;;;;;;;0.00;0.00;;;-0.60;70.30;;;;;;5076934;28;20040;-68
2022/04/03 04:11:48;;;;;;;0.10;0.10;;;-0.50;70.40;;;;;;5112037;28;20457;-68
2022/04/03 04:14:14;;;;;;;0.00;0.00;;;-0.50;70.40;;;;;;5111865;28;20067;-68
2022/04/03 04:16:40;;;;;;;0.10;0.10;;;-0.50;70.40;;;;;;5093001;28;20093;-69
2022/04/03 04:19:06;;;;;;;0.03;0.03;;;-0.50;70.40;;;;;;5111717;28;20485;-68
2022/04/03 04:21:32;;;;;;;0.13;0.10;;;-0.50;70.40;;;;;;5111834;28;20389;-68
2022/04/03 04:23:58;;;;;;;0.20;0.17;;;-0.50;70.50;;;;;;5111588;28;20032;-69
2022/04/03 04:26:25;;;;;;;0.10;0.00;;;-0.50;70.50;;;;;;5092895;28;20138;-69
2022/04/03 04:28:51;;;;;;;0.10;0.10;;;-0.40;70.60;;;;;;5092934;28;20402;-69
2022/04/03 04:31:18;;;;;;;0.03;0.03;;;-0.40;70.50;;;;;;5078119;28;20044;-69
2022/04/03 04:33:44;;;;;;;0.00;0.00;;;-0.40;70.50;;;;;;5115167;28;20042;-69
2022/04/03 04:36:10;;;;;;;0.32;0.10;;;-0.40;70.50;;;;;;5115164;28;20046;-69
2022/04/03 04:38:36;;;;;;;0.13;0.10;;;-0.40;70.60;;;;;;5115047;28;20036;-69
2022/04/03 04:41:03;;;;;;;0.10;0.10;;;-0.30;70.60;;;;;;5115125;28;20113;-68
2022/04/03 04:43:29;;;;;;;0.00;0.00;;;-0.30;70.60;;;;;;5114957;28;20042;-69
2022/04/03 04:45:55;;;;;;;0.10;0.10;;;-0.30;70.70;;;;;;5096973;28;20036;-69
2022/04/03 04:48:21;;;;;;;0.05;0.05;;;-0.30;70.70;;;;;;5115556;28;20042;-68
2022/04/03 04:50:46;;;;;;;0.73;0.15;;;-0.10;70.80;;;;;;5115518;28;20142;-69
2022/04/03 04:53:12;;;;;;;0.03;0.03;;;-0.20;70.80;;;;;;5115517;28;20073;-69
2022/04/03 04:55:38;;;;;;;0.00;0.00;;;-0.20;70.80;;;;;;5115492;28;20039;-69
2022/04/03 04:58:04;;;;;;;0.10;0.10;;;-0.20;70.80;;;;;;5115738;28;20423;-69
2022/04/03 05:00:30;;;;;;;0.00;0.00;;;-0.10;70.80;;;;;;5097217;28;20048;-69
2022/04/03 05:02:56;;;;;;;0.17;0.10;;;-0.10;70.80;;;;;;5115514;28;20032;-69
2022/04/03 05:05:22;;;;;;;0.10;0.10;;;-0.10;70.80;;;;;;5115456;28;20071;-69
2022/04/03 05:07:52;;;;;;;0.10;0.10;;;-0.10;70.80;;;;;;5115342;28;20374;-69
2022/04/03 05:10:18;;;;;;;0.10;0.10;;;0.00;70.90;;;;;;5114704;28;20040;-69
2022/04/03 05:12:44;;;;;;;0.08;0.08;;;0.00;70.90;;;;;;5114484;28;20032;-69
2022/04/03 05:15:11;;;;;;;0.10;0.10;;;0.10;70.90;;;;;;5115311;28;20468;-69
2022/04/03 05:17:39;;;;;;;0.20;0.05;;;0.00;70.90;;;;;;5114594;28;20487;-69
2022/04/03 05:20:06;;;;;;;0.40;0.20;;;0.10;70.90;;;;;;5114441;28;20043;-69
2022/04/03 05:22:31;;;;;;;0.10;0.10;;;0.10;70.90;;;;;;5115025;28;20109;-69
2022/04/03 05:24:57;;;;;;;0.20;0.20;;;0.20;70.90;;;;;;5115013;28;20066;-69
2022/04/03 05:27:33;;;;;;;0.32;0.10;;;0.20;70.90;;;;;;5094452;28;20109;-71
2022/04/03 05:29:58;;;;;;;0.43;0.20;;;0.20;71.00;;;;;;5061680;28;20044;-70
2022/04/03 05:32:26;;;;;;;0.20;0.15;;;0.30;71.00;;;;;;5114719;28;20040;-70
2022/04/03 05:34:52;;;;;;;0.32;0.10;;;0.20;70.90;;;;;;5096324;28;20074;-70
2022/04/03 05:37:19;;;;;;;0.20;0.10;;;0.20;70.90;;;;;;5114849;28;20048;-70
2022/04/03 05:39:45;;;;;;;0.10;0.10;;;0.40;71.00;;;;;;5063103;28;20044;-70
2022/04/03 05:42:12;;;;;;;0.13;0.10;;;0.40;71.00;;;;;;5078513;28;20039;-70
2022/04/03 05:44:38;;;;;;;0.10;0.10;;;0.40;71.00;;;;;;5062275;28;20126;-70
2022/04/03 05:47:04;;;;;;;0.22;0.10;;;0.40;71.00;;;;;;5114696;28;20056;-71
2022/04/03 05:49:31;;;;;;;0.20;0.10;;;0.50;71.10;;;;;;5114662;28;20039;-70
2022/04/03 05:51:56;;;;;;;0.15;0.10;;;0.50;71.10;;;;;;5077705;28;20572;-70
2022/04/03 05:54:22;;;;;;;0.45;0.20;;;0.50;71.10;;;;;;5114406;28;20141;-70
2022/04/03 05:56:48;;;;;;;0.75;0.20;;;0.60;71.10;;;;;;5113881;28;20047;-70
2022/04/03 05:59:14;;;;;;;0.40;0.22;;;0.60;71.20;;;;;;5113844;28;20035;-70
2022/04/03 06:01:40;;;;;;;0.35;0.20;;;0.60;71.20;;;;;;5114148;28;20433;-70
2022/04/03 06:04:06;;;;;;;0.30;0.20;;;0.70;71.20;;;;;;5114053;28;20493;-70
2022/04/03 06:06:31;;;;;;;0.22;0.20;;;0.70;71.10;;;;;;5113799;28;20088;-70
2022/04/03 06:08:57;;;;;;;0.47;0.20;;;0.70;71.10;;;;;;5093973;28;20102;-70
2022/04/03 06:11:23;;;;;;;0.30;0.20;;;0.80;71.20;;;;;;5113997;28;20196;-70
2022/04/03 06:13:49;;;;;;;0.40;0.20;;;0.80;71.20;;;;;;5113946;28;20506;-70
2022/04/03 06:16:15;;;;;;;0.30;0.20;;;0.80;71.20;;;;;;5113925;28;20085;-70
2022/04/03 06:18:40;;;;;;;0.08;0.08;;;0.80;71.20;;;;;;5113505;28;20043;-70
2022/04/03 06:21:06;;;;;;;0.10;0.10;;;0.90;71.20;;;;;;5113930;28;20092;-70
2022/04/03 06:23:32;;;;;;;0.20;0.20;;;0.90;71.30;;;;;;5113900;28;20401;-70
2022/04/03 06:25:58;;;;;;;0.10;0.10;;;0.90;71.20;;;;;;5113848;28;20036;-71
2022/04/03 06:28:25;;;;;;;0.10;0.10;;;1.00;71.30;;;;;;5095218;28;20035;-71
2022/04/03 06:30:52;;;;;;;0.30;0.20;;;1.00;71.30;;;;;;5095554;28;20114;-71
2022/04/03 06:33:18;;;;;;;0.10;0.10;;;1.00;71.30;;;;;;5113769;28;20043;-70
2022/04/03 06:35:45;;;;;;;0.40;0.30;;;1.00;71.40;;;;;;5078400;28;20086;-70
2022/04/03 06:38:11;;;;;;;0.28;0.25;;;1.00;71.40;;;;;;5113141;28;20031;-70
2022/04/03 06:40:40;;;;;;;0.40;0.28;;;1.10;71.50;;;;;;5094202;28;20036;-70
2022/04/03 06:43:07;;;;;;;0.88;0.30;;;1.00;71.60;;;;;;5113446;28;20089;-70
2022/04/03 06:45:32;;;;;;;0.70;0.30;;;1.10;71.70;;;;;;5113595;28;20036;-71
2022/04/03 06:48:00;;;;;;;0.55;0.38;;;1.10;71.70;;;;;;5113679;28;20040;-70
2022/04/03 06:50:26;;;;;;;0.75;0.32;;;1.10;71.70;;;;;;5113105;28;20126;-71
2022/04/03 06:52:52;;;;;;;0.30;0.30;;;1.20;71.70;;;;;;5113103;28;20504;-71
2022/04/03 06:55:18;;;;;;;0.30;0.30;;;1.20;71.60;;;;;;5113001;28;20396;-71
2022/04/03 06:57:43;;;;;;;0.32;0.30;;;1.30;71.50;;;;;;5112953;28;20048;-71
2022/04/03 07:00:11;;;;;;;0.35;0.35;;;1.40;71.50;;;;;;5113413;28;20046;-70
2022/04/03 07:02:36;;;;;;;0.50;0.40;;;1.50;71.50;;;;;;5113333;28;20035;-71
2022/04/03 07:05:04;;;;;;;0.85;0.35;;;1.50;71.40;;;;;;5113417;28;20132;-71
2022/04/03 07:07:30;;;;;;;0.63;0.38;;;1.60;71.30;;;;;;5094469;28;20069;-71
2022/04/03 07:09:56;;;;;;;0.50;0.40;;;1.70;71.20;;;;;;5113087;28;20047;-71
2022/04/03 07:12:22;;;;;;;1.08;0.30;;;1.70;71.10;;;;;;5113030;28;20051;-71
2022/04/03 07:14:49;;;;;;;1.13;0.30;;;1.80;71.10;;;;;;5092519;28;20178;-71
2022/04/03 07:17:16;;;;;;;0.32;0.30;;;2.00;71.10;;;;;;5112743;28;20379;-71
2022/04/03 07:19:41;;;;;;;0.38;0.30;;;2.00;71.00;;;;;;5094967;28;20047;-71
2022/04/03 07:22:07;;;;;;;0.32;0.30;;;2.10;70.90;;;;;;5113315;28;20374;-71
2022/04/03 07:24:33;;;;;;;0.80;0.38;;;2.20;70.90;;;;;;5112810;28;20085;-70
2022/04/03 07:26:58;;;;;;;0.30;0.30;;;2.20;70.80;;;;;;5112828;28;20117;-71
2022/04/03 07:29:25;;;;;;;0.85;0.35;;;2.40;70.80;;;;;;5094426;28;20039;-70
2022/04/03 07:31:51;;;;;;;0.47;0.30;;;2.50;70.80;;;;;;5092648;28;20064;-70
2022/04/03 07:34:18;;;;;;;0.82;0.30;;;2.50;70.70;;;;;;5094373;28;20400;-71
2022/04/03 07:36:44;;;;;;;0.68;0.40;;;2.70;70.60;;;;;;5112776;28;20496;-71
2022/04/03 07:39:12;;;;;;;1.15;0.60;;;2.80;70.50;;;;;;5112740;28;20043;-71
2022/04/03 07:41:38;;;;;;;0.40;0.40;;;2.80;70.40;;;;;;5112577;28;20032;-70
2022/04/03 07:44:05;;;;;;;0.73;0.50;;;3.00;70.50;;;;;;5112141;28;20466;-71
2022/04/03 07:46:31;;;;;;;1.25;0.50;;;3.10;70.40;;;;;;5112497;28;20044;-70
2022/04/03 07:48:57;;;;;;;0.60;0.50;;;3.30;70.50;;;;;;5094235;28;20108;-71
2022/04/03 07:51:23;;;;;;;1.15;0.60;;;3.30;70.30;;;;;;5077115;28;20081;-71
2022/04/03 07:53:50;;;;;;;1.05;0.47;;;3.50;70.30;;;;;;5093790;28;20043;-71
2022/04/03 07:56:16;;;;;;;1.00;0.60;;;3.60;70.20;;;;;;5112070;28;20069;-70
2022/04/03 07:58:42;;;;;;;0.63;0.40;;;3.70;70.10;;;;;;5092735;28;20044;-71
2022/04/03 08:01:08;;;;;;;0.40;0.40;;;3.90;70.10;;;;;;5112098;28;20036;-71
2022/04/03 08:03:34;;;;;;;0.68;0.52;;;4.00;69.90;;;;;;5111964;28;20035;-71
2022/04/03 08:05:59;;;;;;;0.88;0.65;;;4.20;69.80;;;;;;5094196;28;20043;-72
2022/04/03 08:08:25;;;;;;;1.52;0.57;;;4.30;69.60;;;;;;5115850;28;20031;-71
2022/04/03 08:10:51;;;;;;;0.80;0.68;;;4.50;69.60;;;;;;5097887;28;20101;-71
2022/04/03 08:13:17;;;;;;;0.98;0.57;;;4.70;69.60;;;;;;5115606;28;20043;-71
2022/04/03 08:15:43;;;;;;;0.47;0.40;;;4.90;69.50;;;;;;5116084;28;20063;-71
2022/04/03 08:18:09;;;;;;;1.02;0.75;;;5.10;69.20;;;;;;5098200;28;20044;-71
2022/04/03 08:20:35;;;;;;;0.95;0.70;;;5.40;69.10;;;;;;5096831;28;20112;-71
2022/04/03 08:23:03;;;;;;;0.60;0.60;;;5.50;68.90;;;;;;5115534;28;20042;-71
2022/04/03 08:25:31;;;;;;;1.15;0.70;;;5.70;68.80;;;;;;5097840;28;20036;-71
2022/04/03 08:27:57;;;;;;;1.48;0.60;;;5.90;68.60;;;;;;5115520;28;20040;-71
2022/04/03 08:30:25;;;;;;;1.08;0.70;;;6.20;68.60;;;;;;5097112;28;20374;-71
2022/04/03 08:32:51;;;;;;;0.55;0.50;;;6.40;68.40;;;;;;5115403;28;20118;-71
2022/04/03 08:35:17;;;;;;;1.05;0.60;;;6.70;68.10;;;;;;5115641;28;20078;-71
2022/04/03 08:37:44;;;;;;;0.68;0.55;;;6.80;67.90;;;;;;5115749;28;20496;-71
2022/04/03 08:40:11;;;;;;;0.70;0.50;;;7.00;67.70;;;;;;5115477;28;20039;-72
2022/04/03 08:42:37;;;;;;;0.47;0.47;;;6.90;67.60;;;;;;5080150;28;20055;-71
2022/04/03 08:45:05;;;;;;;0.50;0.50;;;6.80;67.90;;;;;;5115275;28;20492;-71
2022/04/03 08:47:31;;;;;;;0.70;0.50;;;6.70;68.20;;;;;;5115314;28;20092;-71
2022/04/03 08:50:00;;;;;;;1.17;0.50;;;6.70;68.70;;;;;;5115839;28;20039;-73
2022/04/03 08:52:27;;;;;;;0.65;0.50;;;6.80;68.90;;;;;;5097760;28;20469;-71
2022/04/03 08:54:54;;;;;;;0.93;0.70;;;6.80;68.90;;;;;;5115729;28;20139;-71
2022/04/03 08:57:21;;;;;;;0.85;0.50;;;6.80;68.90;;;;;;5115439;28;20389;-72
2022/04/03 08:59:49;;;;;;;0.88;0.55;;;6.90;69.00;;;;;;5115526;28;20043;-72
2022/04/03 09:02:15;;;;;;;0.77;0.60;;;7.00;69.00;;;;;;5114961;28;20050;-72
2022/04/03 09:04:41;;;;;;;1.33;0.73;;;7.10;68.70;;;;;;5115246;28;20448;-71
2022/04/03 09:07:06;;;;;;;0.95;0.57;;;7.00;68.70;;;;;;5096704;28;20497;-70
2022/04/03 09:09:32;;;;;;;0.52;0.50;;;7.10;69.00;;;;;;5096593;28;20081;-70
2022/04/03 09:12:15;;;;;;;0.80;0.60;;;7.20;69.00;;;;;;5115035;28;20108;-71
2022/04/03 09:14:46;;;;;;;0.95;0.50;;;7.40;68.70;;;;;;5097074;28;20050;-71
2022/04/03 09:17:13;;;;;;;0.93;0.40;;;7.50;68.60;;;;;;5095534;28;20039;-71
2022/04/03 09:19:39;;;;;;;0.68;0.60;;;7.50;68.60;;;;;;5114655;28;20043;-71
2022/04/03 09:22:05;;;;;;;0.60;0.60;;;7.70;68.50;;;;;;5114704;28;20039;-72
2022/04/03 09:24:34;;;;;;;0.75;0.50;;;7.80;68.40;;;;;;5115114;28;20040;-71
2022/04/03 09:27:02;;;;;;;0.70;0.50;;;7.90;68.20;;;;;;5114658;28;20512;-70
2022/04/03 09:29:28;;;;;;;0.50;0.50;;;8.10;68.20;;;;;;5115210;28;20047;-72
2022/04/03 09:32:02;;;;;;;1.08;0.80;;;8.20;67.70;;;;;;5096380;28;20401;-70
2022/04/03 09:34:29;;;;;;;1.77;0.50;;;8.20;67.40;;;;;;5115079;28;20032;-72
2022/04/03 09:36:59;;;;;;;0.40;0.40;;;8.20;67.40;;;;;;5096038;28;20093;-73
2022/04/03 09:39:27;;;;;;;0.85;0.60;;;8.30;67.60;;;;;;5114362;28;20040;-72
2022/04/03 09:42:11;;;;;;;0.50;0.50;;;8.10;67.70;;;;;;5095831;28;20122;-73
2022/04/03 09:44:39;;;;;;;0.63;0.40;;;8.00;68.00;;;;;;5114500;28;20036;-73
2022/04/03 09:47:26;;;;;;;0.75;0.60;;;7.90;68.30;;;;;;5095927;28;20460;-72
2022/04/03 09:49:56;;;;;;;0.80;0.80;;;7.70;68.60;;;;;;5093219;28;20067;-72
2022/04/03 09:52:35;;;;;;;0.63;0.50;;;7.60;68.70;;;;;;5114308;28;20039;-73
2022/04/03 09:55:06;;;;;;;0.35;0.35;;;7.60;69.50;;;;;;5114351;28;20085;-71
2022/04/03 09:57:32;;;;;;;0.40;0.30;;;7.60;69.00;;;;;;5113935;28;20040;-71
2022/04/03 09:59:58;;;;;;;0.40;0.32;;;7.30;68.90;;;;;;5113641;28;20051;-72
2022/04/03 10:02:24;;;;;;;0.43;0.40;;;7.40;69.00;;;;;;5114593;28;20536;-72
2022/04/03 10:04:51;;;;;;;0.35;0.30;;;7.40;69.00;;;;;;5114436;28;20485;-69
2022/04/03 10:07:17;;;;;;;0.60;0.30;;;7.60;68.70;;;;;;5095223;28;20088;-71
2022/04/03 10:09:46;;;;;;;1.75;0.50;;;7.80;68.30;;;;;;5113838;28;20517;-72
2022/04/03 10:12:16;;;;;;;0.30;0.30;;;8.10;67.70;;;;;;5113738;28;20036;-72
2022/04/03 10:14:44;;;;;;;1.13;0.30;;;8.40;67.10;;;;;;5113934;28;20485;-71
2022/04/03 10:17:10;;;;;;;1.20;0.30;;;8.50;66.40;;;;;;5114028;28;20036;-71
2022/04/03 10:19:36;;;;;;;0.43;0.32;;;8.50;65.90;;;;;;5113488;28;20134;-71
2022/04/03 10:22:05;;;;;;;0.20;0.20;;;8.50;66.00;;;;;;5113963;28;20075;-71
2022/04/03 10:24:36;;;;;;;0.20;0.20;;;8.50;66.30;;;;;;5114253;28;20039;-71
2022/04/03 10:27:12;;;;;;;1.00;0.30;;;8.20;66.40;;;;;;5113620;28;20101;-72
2022/04/03 10:29:40;;;;;;;0.68;0.10;;;8.00;66.60;;;;;;5093505;28;20044;-71
2022/04/03 10:32:06;;;;;;;1.05;0.38;;;7.90;67.50;;;;;;5095370;28;20048;-71
2022/04/03 10:34:49;;;;;;;0.13;0.10;;;7.80;67.00;;;;;;5113718;28;20047;-71
2022/04/03 10:37:31;;;;;;;0.28;0.20;;;7.70;67.20;;;;;;5113624;28;20031;-71
2022/04/03 10:40:08;;;;;;;0.20;0.20;;;7.70;67.40;;;;;;5113545;28;20043;-71
2022/04/03 10:42:47;;;;;;;1.10;0.10;;;7.60;67.50;;;;;;5111972;28;20451;-71
2022/04/03 10:45:35;;;;;;;0.20;0.20;;;7.60;67.50;;;;;;5113478;28;20043;-71
2022/04/03 10:48:24;;;;;;;0.20;0.20;;;7.60;67.30;;;;;;5098640;28;20032;-71
2022/04/03 10:51:09;;;;;;;0.10;0.10;;;7.70;67.20;;;;;;5112734;28;20047;-71
2022/04/03 10:53:42;;;;;;;0.17;0.17;;;7.70;67.10;;;;;;5113106;28;20051;-71
2022/04/03 10:56:21;;;;;;;1.30;0.43;;;7.70;66.90;;;;;;5077627;28;20067;-72
2022/04/03 10:58:49;;;;;;;0.45;0.25;;;7.70;66.90;;;;;;5112863;28;20062;-69
2022/04/03 11:01:29;;;;;;;0.45;0.25;;;7.70;66.80;;;;;;5113406;28;20127;-71
2022/04/03 11:04:00;;;;;;;0.10;0.10;;;7.80;66.70;;;;;;5113919;28;20040;-71
2022/04/03 11:06:29;;;;;;;0.20;0.10;;;7.90;66.40;;;;;;5113202;28;20108;-71
2022/04/03 11:08:58;;;;;;;0.20;0.20;;;7.90;66.20;;;;;;5078088;28;20446;-71
2022/04/03 11:11:43;;;;;;;0.30;0.20;;;7.90;66.20;;;;;;5112911;28;20043;-68
2022/04/03 11:14:11;;;;;;;0.10;0.10;;;7.90;66.00;;;;;;5112641;28;20035;-71
2022/04/03 11:16:50;;;;;;;0.38;0.20;;;8.00;66.00;;;;;;5112508;28;20040;-68
2022/04/03 11:19:34;;;;;;;1.35;0.10;;;8.00;65.90;;;;;;5112792;28;20074;-70
2022/04/03 11:22:01;;;;;;;0.47;0.20;;;8.00;66.00;;;;;;5113067;28;20067;-71
2022/04/03 11:24:27;;;;;;;0.10;0.10;;;8.00;66.00;;;;;;5094560;28;20097;-71
2022/04/03 11:26:54;;;;;;;0.20;0.20;;;7.90;65.90;;;;;;5113021;28;20402;-70
2022/04/03 11:29:19;;;;;;;0.85;0.22;;;7.80;65.90;;;;;;5112835;28;20035;-72
2022/04/03 11:31:46;;;;;;;0.20;0.20;;;7.90;66.00;;;;;;5112975;28;20492;-69
2022/04/03 11:34:12;;;;;;;1.27;0.20;;;7.90;66.00;;;;;;5112547;28;20044;-71
2022/04/03 11:36:38;;;;;;;0.38;0.28;;;7.90;65.90;;;;;;5112546;28;20050;-71
2022/04/03 11:39:06;;;;;;;0.13;0.13;;;8.00;65.90;;;;;;5112660;28;20483;-71
2022/04/03 11:41:35;;;;;;;0.55;0.30;;;8.00;65.90;;;;;;5114143;28;20071;-72
2022/04/03 11:44:11;;;;;;;0.20;0.20;;;7.90;65.80;;;;;;5116018;28;20039;-72
2022/04/03 11:46:41;;;;;;;0.10;0.10;;;8.00;65.70;;;;;;5116122;28;20081;-72
2022/04/03 11:49:12;;;;;;;0.20;0.20;;;8.00;65.70;;;;;;5116193;28;20047;-70
2022/04/03 11:51:38;;;;;;;0.28;0.20;;;8.00;65.70;;;;;;5116196;28;20485;-70
2022/04/03 11:54:04;;;;;;;0.50;0.20;;;8.10;65.70;;;;;;5116111;28;20473;-72
2022/04/03 11:56:35;;;;;;;0.30;0.30;;;8.10;65.50;;;;;;5116430;28;20039;-70
2022/04/03 11:59:03;;;;;;;0.38;0.20;;;8.20;65.30;;;;;;5116221;28;20423;-71
2022/04/03 12:01:35;;;;;;;0.10;0.10;;;8.30;65.10;;;;;;5080501;28;20338;-71
2022/04/03 12:04:02;;;;;;;0.20;0.20;;;8.40;65.00;;;;;;5081241;28;20035;-70
2022/04/03 12:06:31;;;;;;;0.55;0.45;;;8.50;64.70;;;;;;5115950;28;20055;-71
2022/04/03 12:08:57;;;;;;;0.32;0.30;;;8.40;64.50;;;;;;5116375;28;20044;-71
2022/04/03 12:11:27;;;;;;;0.55;0.40;;;8.30;64.70;;;;;;5115774;28;20039;-70
2022/04/03 12:13:55;;;;;;;1.35;0.40;;;8.20;65.10;;;;;;5096276;28;20047;-72
2022/04/03 12:16:26;;;;;;;0.93;0.47;;;8.00;65.20;;;;;;5095834;28;20048;-71
2022/04/03 12:18:57;;;;;;;0.57;0.40;;;8.00;65.60;;;;;;5097483;28;20040;-71
2022/04/03 12:21:52;;;;;;;0.43;0.30;;;7.80;65.70;;;;;;5115705;28;20043;-71
2022/04/03 12:24:20;;;;;;;0.32;0.30;;;7.80;66.00;;;;;;5097330;28;20092;-71
2022/04/03 12:26:51;;;;;;;0.30;0.30;;;7.70;66.10;;;;;;5115622;28;20047;-71
2022/04/03 12:29:18;;;;;;;0.30;0.25;;;7.60;66.20;;;;;;5097941;28;20048;-72
2022/04/03 12:32:03;;;;;;;0.30;0.30;;;7.60;66.30;;;;;;5115684;28;20070;-70
2022/04/03 12:34:31;;;;;;;0.30;0.20;;;7.60;66.30;;;;;;5115342;28;20093;-70
2022/04/03 12:36:58;;;;;;;0.28;0.28;;;7.80;66.50;;;;;;5115209;28;20032;-70
2022/04/03 12:40:04;;;;;;;0.57;0.40;;;7.80;66.30;;;;;;5115444;28;20044;-70
2022/04/03 12:42:34;;;;;;;0.32;0.20;;;7.80;66.10;;;;;;5100264;28;20061;-70
2022/04/03 12:45:13;;;;;;;0.20;0.20;;;7.80;66.10;;;;;;5115356;28;20046;-71
2022/04/03 12:47:42;;;;;;;0.30;0.30;;;7.70;66.10;;;;;;5115111;28;20493;-70
2022/04/03 12:50:25;;;;;;;1.00;0.28;;;7.70;66.20;;;;;;5115765;28;20032;-71
2022/04/03 12:52:55;;;;;;;0.20;0.20;;;7.60;66.30;;;;;;5114965;28;20045;-70
2022/04/03 12:55:41;;;;;;;0.15;0.15;;;7.50;66.30;;;;;;5115146;28;20051;-70